sensor_id;sensor_type;location;lat;lon;timestamp;P1;durP1;ratioP1;P2;durP2;ratioP2
22843;SDS011;11588;51.178;4.852;2023-05-07T00:01:42;16.58;;;13.15;;
22843;SDS011;11588;51.178;4.852;2023-05-07T00:04:08;18.58;;;13.68;;
22843;SDS011;11588;51.178;4.852;2023-05-07T00:06:33;18.75;;;13.18;;
22843;SDS011;11588;51.178;4.852;2023-05-07T00:08:58;15.65;;;13.05;;
22843;SDS011;11588;51.178;4.852;2023-05-07T00:11:25;17.15;;;13.38;;
22843;SDS011;11588;51.178;4.852;2023-05-07T00:13:51;17.95;;;13.13;;
22843;SDS011;11588;51.178;4.852;2023-05-07T00:16:16;17.70;;;12.95;;
22843;SDS011;11588;51.178;4.852;2023-05-07T00:18:41;17.88;;;13.23;;
22843;SDS011;11588;51.178;4.852;2023-05-07T00:21:07;17.48;;;13.32;;
22843;SDS011;11588;51.178;4.852;2023-05-07T00:23:32;15.52;;;13.07;;
22843;SDS011;11588;51.178;4.852;2023-05-07T00:25:57;19.02;;;13.13;;
22843;SDS011;11588;51.178;4.852;2023-05-07T00:28:23;19.13;;;13.57;;
22843;SDS011;11588;51.178;4.852;2023-05-07T00:30:48;16.60;;;13.50;;
22843;SDS011;11588;51.178;4.852;2023-05-07T00:33:15;16.02;;;13.77;;
22843;SDS011;11588;51.178;4.852;2023-05-07T00:35:41;20.27;;;14.65;;
22843;SDS011;11588;51.178;4.852;2023-05-07T00:38:07;16.75;;;13.48;;
22843;SDS011;11588;51.178;4.852;2023-05-07T00:40:32;18.58;;;14.07;;
22843;SDS011;11588;51.178;4.852;2023-05-07T00:43:00;19.35;;;14.23;;
22843;SDS011;11588;51.178;4.852;2023-05-07T00:45:26;17.83;;;13.43;;
22843;SDS011;11588;51.178;4.852;2023-05-07T00:47:55;16.77;;;14.05;;
22843;SDS011;11588;51.178;4.852;2023-05-07T00:50:22;16.73;;;13.77;;
22843;SDS011;11588;51.178;4.852;2023-05-07T00:52:48;19.58;;;13.95;;
22843;SDS011;11588;51.178;4.852;2023-05-07T00:55:13;19.98;;;14.32;;
22843;SDS011;11588;51.178;4.852;2023-05-07T00:57:40;16.35;;;14.60;;
22843;SDS011;11588;51.178;4.852;2023-05-07T01:00:06;17.75;;;14.35;;
22843;SDS011;11588;51.178;4.852;2023-05-07T01:02:35;18.52;;;14.23;;
22843;SDS011;11588;51.178;4.852;2023-05-07T01:05:01;16.92;;;14.25;;
22843;SDS011;11588;51.178;4.852;2023-05-07T01:07:26;18.65;;;14.70;;
22843;SDS011;11588;51.178;4.852;2023-05-07T01:09:52;16.85;;;13.98;;
22843;SDS011;11588;51.178;4.852;2023-05-07T01:12:19;20.00;;;15.18;;
22843;SDS011;11588;51.178;4.852;2023-05-07T01:14:45;21.58;;;15.82;;
22843;SDS011;11588;51.178;4.852;2023-05-07T01:17:10;19.25;;;14.10;;
22843;SDS011;11588;51.178;4.852;2023-05-07T01:19:36;16.98;;;14.15;;
22843;SDS011;11588;51.178;4.852;2023-05-07T01:22:02;17.63;;;15.07;;
22843;SDS011;11588;51.178;4.852;2023-05-07T01:24:30;19.20;;;14.38;;
22843;SDS011;11588;51.178;4.852;2023-05-07T01:26:56;18.50;;;14.43;;
22843;SDS011;11588;51.178;4.852;2023-05-07T01:29:21;19.42;;;14.90;;
22843;SDS011;11588;51.178;4.852;2023-05-07T01:31:46;18.10;;;13.80;;
22843;SDS011;11588;51.178;4.852;2023-05-07T01:34:12;17.63;;;14.93;;
22843;SDS011;11588;51.178;4.852;2023-05-07T01:36:41;17.65;;;15.20;;
22843;SDS011;11588;51.178;4.852;2023-05-07T01:39:08;21.35;;;15.57;;
22843;SDS011;11588;51.178;4.852;2023-05-07T01:41:33;19.75;;;15.02;;
22843;SDS011;11588;51.178;4.852;2023-05-07T01:44:01;20.48;;;16.08;;
22843;SDS011;11588;51.178;4.852;2023-05-07T01:46:28;20.02;;;15.77;;
22843;SDS011;11588;51.178;4.852;2023-05-07T01:48:53;23.50;;;15.57;;
22843;SDS011;11588;51.178;4.852;2023-05-07T01:51:19;19.42;;;16.00;;
22843;SDS011;11588;51.178;4.852;2023-05-07T01:53:46;20.83;;;16.83;;
22843;SDS011;11588;51.178;4.852;2023-05-07T01:56:15;21.20;;;16.77;;
22843;SDS011;11588;51.178;4.852;2023-05-07T01:58:42;19.05;;;16.55;;
22843;SDS011;11588;51.178;4.852;2023-05-07T02:01:07;21.33;;;16.23;;
22843;SDS011;11588;51.178;4.852;2023-05-07T02:03:34;22.98;;;17.67;;
22843;SDS011;11588;51.178;4.852;2023-05-07T02:06:01;24.80;;;18.52;;
22843;SDS011;11588;51.178;4.852;2023-05-07T02:08:26;24.35;;;18.85;;
22843;SDS011;11588;51.178;4.852;2023-05-07T02:10:51;27.35;;;20.00;;
22843;SDS011;11588;51.178;4.852;2023-05-07T02:13:18;27.48;;;19.30;;
22843;SDS011;11588;51.178;4.852;2023-05-07T02:15:45;28.33;;;19.17;;
22843;SDS011;11588;51.178;4.852;2023-05-07T02:18:14;28.50;;;19.35;;
22843;SDS011;11588;51.178;4.852;2023-05-07T02:20:42;23.33;;;18.00;;
22843;SDS011;11588;51.178;4.852;2023-05-07T02:23:11;26.92;;;20.05;;
22843;SDS011;11588;51.178;4.852;2023-05-07T02:25:36;26.35;;;19.55;;
22843;SDS011;11588;51.178;4.852;2023-05-07T02:28:02;25.98;;;18.60;;
22843;SDS011;11588;51.178;4.852;2023-05-07T02:30:27;21.45;;;18.27;;
22843;SDS011;11588;51.178;4.852;2023-05-07T02:32:53;22.95;;;18.40;;
22843;SDS011;11588;51.178;4.852;2023-05-07T02:35:18;24.42;;;18.60;;
22843;SDS011;11588;51.178;4.852;2023-05-07T02:37:44;22.25;;;17.90;;
22843;SDS011;11588;51.178;4.852;2023-05-07T02:40:10;23.27;;;18.02;;
22843;SDS011;11588;51.178;4.852;2023-05-07T02:42:36;20.35;;;17.52;;
22843;SDS011;11588;51.178;4.852;2023-05-07T02:45:03;20.42;;;17.00;;
22843;SDS011;11588;51.178;4.852;2023-05-07T02:47:28;22.38;;;16.73;;
22843;SDS011;11588;51.178;4.852;2023-05-07T02:49:54;21.35;;;16.33;;
22843;SDS011;11588;51.178;4.852;2023-05-07T02:52:20;19.77;;;15.52;;
22843;SDS011;11588;51.178;4.852;2023-05-07T02:54:47;24.08;;;16.85;;
22843;SDS011;11588;51.178;4.852;2023-05-07T02:57:12;26.00;;;16.67;;
22843;SDS011;11588;51.178;4.852;2023-05-07T02:59:38;19.80;;;15.73;;
22843;SDS011;11588;51.178;4.852;2023-05-07T03:02:03;22.17;;;15.57;;
22843;SDS011;11588;51.178;4.852;2023-05-07T03:04:28;21.08;;;15.75;;
22843;SDS011;11588;51.178;4.852;2023-05-07T03:06:54;17.20;;;15.13;;
22843;SDS011;11588;51.178;4.852;2023-05-07T03:09:19;19.70;;;15.85;;
22843;SDS011;11588;51.178;4.852;2023-05-07T03:11:45;18.63;;;14.63;;
22843;SDS011;11588;51.178;4.852;2023-05-07T03:14:12;19.00;;;15.45;;
22843;SDS011;11588;51.178;4.852;2023-05-07T03:16:37;19.60;;;15.75;;
22843;SDS011;11588;51.178;4.852;2023-05-07T03:19:06;18.35;;;15.57;;
22843;SDS011;11588;51.178;4.852;2023-05-07T03:21:32;21.60;;;15.45;;
22843;SDS011;11588;51.178;4.852;2023-05-07T03:23:58;17.20;;;14.98;;
22843;SDS011;11588;51.178;4.852;2023-05-07T03:26:24;18.67;;;15.57;;
22843;SDS011;11588;51.178;4.852;2023-05-07T03:28:50;16.42;;;14.45;;
22843;SDS011;11588;51.178;4.852;2023-05-07T03:31:16;22.30;;;15.77;;
22843;SDS011;11588;51.178;4.852;2023-05-07T03:36:17;19.25;;;15.25;;
22843;SDS011;11588;51.178;4.852;2023-05-07T03:38:43;19.08;;;15.88;;
22843;SDS011;11588;51.178;4.852;2023-05-07T03:41:08;20.63;;;16.25;;
22843;SDS011;11588;51.178;4.852;2023-05-07T03:43:33;22.70;;;16.48;;
22843;SDS011;11588;51.178;4.852;2023-05-07T03:46:00;21.35;;;16.58;;
22843;SDS011;11588;51.178;4.852;2023-05-07T03:48:26;18.77;;;15.30;;
22843;SDS011;11588;51.178;4.852;2023-05-07T03:50:52;22.08;;;16.13;;
22843;SDS011;11588;51.178;4.852;2023-05-07T03:53:18;18.42;;;15.88;;
22843;SDS011;11588;51.178;4.852;2023-05-07T03:55:43;20.70;;;16.40;;
22843;SDS011;11588;51.178;4.852;2023-05-07T03:58:08;18.90;;;15.98;;
22843;SDS011;11588;51.178;4.852;2023-05-07T04:00:34;17.83;;;15.70;;
22843;SDS011;11588;51.178;4.852;2023-05-07T04:03:03;17.80;;;15.60;;
22843;SDS011;11588;51.178;4.852;2023-05-07T04:05:29;18.42;;;15.57;;
22843;SDS011;11588;51.178;4.852;2023-05-07T04:07:55;19.17;;;16.52;;
22843;SDS011;11588;51.178;4.852;2023-05-07T04:10:20;22.60;;;16.10;;
22843;SDS011;11588;51.178;4.852;2023-05-07T04:12:46;20.15;;;16.42;;
22843;SDS011;11588;51.178;4.852;2023-05-07T04:15:11;21.90;;;16.85;;
22843;SDS011;11588;51.178;4.852;2023-05-07T04:17:36;20.83;;;16.70;;
22843;SDS011;11588;51.178;4.852;2023-05-07T04:20:03;21.42;;;16.20;;
22843;SDS011;11588;51.178;4.852;2023-05-07T04:22:29;21.35;;;16.42;;
22843;SDS011;11588;51.178;4.852;2023-05-07T04:24:54;19.52;;;16.17;;
22843;SDS011;11588;51.178;4.852;2023-05-07T04:27:19;22.05;;;16.20;;
22843;SDS011;11588;51.178;4.852;2023-05-07T04:29:46;18.48;;;15.80;;
22843;SDS011;11588;51.178;4.852;2023-05-07T04:32:12;18.50;;;15.05;;
22843;SDS011;11588;51.178;4.852;2023-05-07T04:34:39;19.80;;;16.60;;
22843;SDS011;11588;51.178;4.852;2023-05-07T04:37:05;18.52;;;15.60;;
22843;SDS011;11588;51.178;4.852;2023-05-07T04:39:30;17.95;;;15.45;;
22843;SDS011;11588;51.178;4.852;2023-05-07T04:41:57;21.73;;;15.98;;
22843;SDS011;11588;51.178;4.852;2023-05-07T04:44:22;18.92;;;15.52;;
22843;SDS011;11588;51.178;4.852;2023-05-07T04:46:50;23.70;;;16.38;;
22843;SDS011;11588;51.178;4.852;2023-05-07T04:49:16;17.98;;;15.23;;
22843;SDS011;11588;51.178;4.852;2023-05-07T04:51:41;18.33;;;15.20;;
22843;SDS011;11588;51.178;4.852;2023-05-07T04:54:09;19.38;;;16.15;;
22843;SDS011;11588;51.178;4.852;2023-05-07T04:56:34;19.73;;;15.75;;
22843;SDS011;11588;51.178;4.852;2023-05-07T04:58:59;18.38;;;14.68;;
22843;SDS011;11588;51.178;4.852;2023-05-07T05:01:25;18.48;;;15.18;;
22843;SDS011;11588;51.178;4.852;2023-05-07T05:03:51;17.15;;;14.63;;
22843;SDS011;11588;51.178;4.852;2023-05-07T05:06:17;16.90;;;14.45;;
22843;SDS011;11588;51.178;4.852;2023-05-07T05:08:42;19.60;;;15.13;;
22843;SDS011;11588;51.178;4.852;2023-05-07T05:11:08;18.73;;;14.38;;
22843;SDS011;11588;51.178;4.852;2023-05-07T05:13:34;18.48;;;14.73;;
22843;SDS011;11588;51.178;4.852;2023-05-07T05:16:00;17.85;;;14.75;;
22843;SDS011;11588;51.178;4.852;2023-05-07T05:18:25;20.15;;;14.77;;
22843;SDS011;11588;51.178;4.852;2023-05-07T05:20:52;16.08;;;14.38;;
22843;SDS011;11588;51.178;4.852;2023-05-07T05:23:18;16.48;;;13.80;;
22843;SDS011;11588;51.178;4.852;2023-05-07T05:25:43;16.45;;;14.15;;
22843;SDS011;11588;51.178;4.852;2023-05-07T05:28:08;16.75;;;13.90;;
22843;SDS011;11588;51.178;4.852;2023-05-07T05:30:34;17.23;;;14.13;;
22843;SDS011;11588;51.178;4.852;2023-05-07T05:33:01;19.25;;;14.05;;
22843;SDS011;11588;51.178;4.852;2023-05-07T05:35:27;17.30;;;13.40;;
22843;SDS011;11588;51.178;4.852;2023-05-07T05:37:53;16.55;;;13.60;;
22843;SDS011;11588;51.178;4.852;2023-05-07T05:40:18;14.98;;;12.90;;
22843;SDS011;11588;51.178;4.852;2023-05-07T05:42:43;16.83;;;13.38;;
22843;SDS011;11588;51.178;4.852;2023-05-07T05:45:09;16.02;;;13.90;;
22843;SDS011;11588;51.178;4.852;2023-05-07T05:47:34;14.85;;;13.35;;
22843;SDS011;11588;51.178;4.852;2023-05-07T05:50:00;16.67;;;13.60;;
22843;SDS011;11588;51.178;4.852;2023-05-07T05:52:25;17.35;;;12.90;;
22843;SDS011;11588;51.178;4.852;2023-05-07T05:54:53;18.10;;;13.15;;
22843;SDS011;11588;51.178;4.852;2023-05-07T05:57:18;15.98;;;12.98;;
22843;SDS011;11588;51.178;4.852;2023-05-07T05:59:44;16.08;;;13.35;;
22843;SDS011;11588;51.178;4.852;2023-05-07T06:02:09;14.15;;;12.65;;
22843;SDS011;11588;51.178;4.852;2023-05-07T06:04:35;15.60;;;13.15;;
22843;SDS011;11588;51.178;4.852;2023-05-07T06:07:00;15.63;;;12.55;;
22843;SDS011;11588;51.178;4.852;2023-05-07T06:09:25;14.55;;;13.00;;
22843;SDS011;11588;51.178;4.852;2023-05-07T06:11:51;14.80;;;12.88;;
22843;SDS011;11588;51.178;4.852;2023-05-07T06:14:16;14.55;;;12.85;;
22843;SDS011;11588;51.178;4.852;2023-05-07T06:16:41;15.43;;;13.10;;
22843;SDS011;11588;51.178;4.852;2023-05-07T06:19:07;16.00;;;13.55;;
22843;SDS011;11588;51.178;4.852;2023-05-07T06:21:32;16.02;;;13.82;;
22843;SDS011;11588;51.178;4.852;2023-05-07T06:23:58;17.48;;;13.98;;
22843;SDS011;11588;51.178;4.852;2023-05-07T06:26:23;16.88;;;14.13;;
22843;SDS011;11588;51.178;4.852;2023-05-07T06:28:52;16.48;;;13.52;;
22843;SDS011;11588;51.178;4.852;2023-05-07T06:31:18;15.15;;;13.40;;
22843;SDS011;11588;51.178;4.852;2023-05-07T06:33:45;17.65;;;14.57;;
22843;SDS011;11588;51.178;4.852;2023-05-07T06:36:10;14.68;;;13.02;;
22843;SDS011;11588;51.178;4.852;2023-05-07T06:38:36;14.80;;;13.25;;
22843;SDS011;11588;51.178;4.852;2023-05-07T06:41:02;16.15;;;12.30;;
22843;SDS011;11588;51.178;4.852;2023-05-07T06:43:29;17.10;;;12.50;;
22843;SDS011;11588;51.178;4.852;2023-05-07T06:45:55;15.00;;;13.13;;
22843;SDS011;11588;51.178;4.852;2023-05-07T06:48:20;17.08;;;13.02;;
22843;SDS011;11588;51.178;4.852;2023-05-07T06:50:45;14.57;;;12.88;;
22843;SDS011;11588;51.178;4.852;2023-05-07T06:53:11;14.88;;;13.13;;
22843;SDS011;11588;51.178;4.852;2023-05-07T06:55:36;16.10;;;13.52;;
22843;SDS011;11588;51.178;4.852;2023-05-07T06:58:03;13.88;;;12.35;;
22843;SDS011;11588;51.178;4.852;2023-05-07T07:00:30;14.60;;;13.10;;
22843;SDS011;11588;51.178;4.852;2023-05-07T07:02:56;16.45;;;13.10;;
22843;SDS011;11588;51.178;4.852;2023-05-07T07:05:21;17.92;;;13.68;;
22843;SDS011;11588;51.178;4.852;2023-05-07T07:07:48;16.05;;;13.50;;
22843;SDS011;11588;51.178;4.852;2023-05-07T07:10:19;15.38;;;12.63;;
22843;SDS011;11588;51.178;4.852;2023-05-07T07:12:46;17.40;;;13.38;;
22843;SDS011;11588;51.178;4.852;2023-05-07T07:15:12;15.32;;;12.85;;
22843;SDS011;11588;51.178;4.852;2023-05-07T07:17:38;14.85;;;13.23;;
22843;SDS011;11588;51.178;4.852;2023-05-07T07:20:03;14.68;;;12.77;;
22843;SDS011;11588;51.178;4.852;2023-05-07T07:22:29;14.65;;;13.15;;
22843;SDS011;11588;51.178;4.852;2023-05-07T07:24:54;14.50;;;12.52;;
22843;SDS011;11588;51.178;4.852;2023-05-07T07:27:20;15.55;;;12.23;;
22843;SDS011;11588;51.178;4.852;2023-05-07T07:29:45;13.27;;;11.85;;
22843;SDS011;11588;51.178;4.852;2023-05-07T07:32:11;14.95;;;11.88;;
22843;SDS011;11588;51.178;4.852;2023-05-07T07:34:36;14.77;;;11.50;;
22843;SDS011;11588;51.178;4.852;2023-05-07T07:37:01;14.90;;;11.00;;
22843;SDS011;11588;51.178;4.852;2023-05-07T07:39:30;15.50;;;11.27;;
22843;SDS011;11588;51.178;4.852;2023-05-07T07:41:56;17.10;;;12.32;;
22843;SDS011;11588;51.178;4.852;2023-05-07T07:44:21;12.90;;;10.63;;
22843;SDS011;11588;51.178;4.852;2023-05-07T07:46:47;11.85;;;10.48;;
22843;SDS011;11588;51.178;4.852;2023-05-07T07:49:13;12.15;;;9.65;;
22843;SDS011;11588;51.178;4.852;2023-05-07T07:51:38;15.85;;;9.88;;
22843;SDS011;11588;51.178;4.852;2023-05-07T07:54:04;12.82;;;9.50;;
22843;SDS011;11588;51.178;4.852;2023-05-07T07:56:29;10.45;;;9.35;;
22843;SDS011;11588;51.178;4.852;2023-05-07T07:58:55;11.80;;;8.98;;
22843;SDS011;11588;51.178;4.852;2023-05-07T08:01:20;15.05;;;9.15;;
22843;SDS011;11588;51.178;4.852;2023-05-07T08:03:45;12.95;;;9.57;;
22843;SDS011;11588;51.178;4.852;2023-05-07T08:06:11;13.98;;;9.85;;
22843;SDS011;11588;51.178;4.852;2023-05-07T08:08:36;12.70;;;9.40;;
22843;SDS011;11588;51.178;4.852;2023-05-07T08:11:03;13.32;;;10.25;;
22843;SDS011;11588;51.178;4.852;2023-05-07T08:13:30;10.48;;;9.07;;
22843;SDS011;11588;51.178;4.852;2023-05-07T08:15:55;14.23;;;9.52;;
22843;SDS011;11588;51.178;4.852;2023-05-07T08:18:21;10.23;;;9.13;;
22843;SDS011;11588;51.178;4.852;2023-05-07T08:20:48;11.02;;;9.38;;
22843;SDS011;11588;51.178;4.852;2023-05-07T08:23:13;16.75;;;10.38;;
22843;SDS011;11588;51.178;4.852;2023-05-07T08:25:39;10.48;;;8.63;;
22843;SDS011;11588;51.178;4.852;2023-05-07T08:28:06;10.45;;;8.23;;
22843;SDS011;11588;51.178;4.852;2023-05-07T08:30:31;12.60;;;9.63;;
22843;SDS011;11588;51.178;4.852;2023-05-07T08:32:59;14.57;;;9.52;;
22843;SDS011;11588;51.178;4.852;2023-05-07T08:35:26;11.80;;;9.00;;
22843;SDS011;11588;51.178;4.852;2023-05-07T08:37:54;14.68;;;9.00;;
22843;SDS011;11588;51.178;4.852;2023-05-07T08:40:20;11.77;;;8.02;;
22843;SDS011;11588;51.178;4.852;2023-05-07T08:42:48;10.48;;;9.38;;
22843;SDS011;11588;51.178;4.852;2023-05-07T08:45:14;15.55;;;9.07;;
22843;SDS011;11588;51.178;4.852;2023-05-07T08:47:43;16.20;;;9.70;;
22843;SDS011;11588;51.178;4.852;2023-05-07T08:50:10;10.88;;;8.93;;
22843;SDS011;11588;51.178;4.852;2023-05-07T08:52:36;11.95;;;8.65;;
22843;SDS011;11588;51.178;4.852;2023-05-07T08:55:03;13.05;;;8.27;;
22843;SDS011;11588;51.178;4.852;2023-05-07T08:57:29;12.18;;;8.02;;
22843;SDS011;11588;51.178;4.852;2023-05-07T08:59:54;11.73;;;7.82;;
22843;SDS011;11588;51.178;4.852;2023-05-07T09:02:21;12.75;;;8.48;;
22843;SDS011;11588;51.178;4.852;2023-05-07T09:04:47;9.07;;;7.78;;
22843;SDS011;11588;51.178;4.852;2023-05-07T09:07:12;13.07;;;9.00;;
22843;SDS011;11588;51.178;4.852;2023-05-07T09:09:38;12.73;;;9.10;;
22843;SDS011;11588;51.178;4.852;2023-05-07T09:12:03;13.07;;;10.13;;
22843;SDS011;11588;51.178;4.852;2023-05-07T09:14:29;16.17;;;10.63;;
22843;SDS011;11588;51.178;4.852;2023-05-07T09:16:55;13.40;;;10.90;;
22843;SDS011;11588;51.178;4.852;2023-05-07T09:19:22;15.05;;;10.38;;
22843;SDS011;11588;51.178;4.852;2023-05-07T09:21:48;12.40;;;9.95;;
22843;SDS011;11588;51.178;4.852;2023-05-07T09:24:15;15.52;;;10.20;;
22843;SDS011;11588;51.178;4.852;2023-05-07T09:26:40;13.93;;;10.48;;
22843;SDS011;11588;51.178;4.852;2023-05-07T09:29:06;13.57;;;8.68;;
22843;SDS011;11588;51.178;4.852;2023-05-07T09:31:35;12.40;;;9.80;;
22843;SDS011;11588;51.178;4.852;2023-05-07T09:34:01;16.13;;;11.23;;
22843;SDS011;11588;51.178;4.852;2023-05-07T09:36:26;15.50;;;11.73;;
22843;SDS011;11588;51.178;4.852;2023-05-07T09:38:52;15.30;;;11.80;;
22843;SDS011;11588;51.178;4.852;2023-05-07T09:41:17;16.15;;;10.95;;
22843;SDS011;11588;51.178;4.852;2023-05-07T09:43:43;14.00;;;10.00;;
22843;SDS011;11588;51.178;4.852;2023-05-07T09:46:13;13.25;;;10.02;;
22843;SDS011;11588;51.178;4.852;2023-05-07T09:48:39;17.15;;;11.80;;
22843;SDS011;11588;51.178;4.852;2023-05-07T09:51:10;17.25;;;11.65;;
22843;SDS011;11588;51.178;4.852;2023-05-07T09:53:36;18.98;;;12.30;;
22843;SDS011;11588;51.178;4.852;2023-05-07T09:56:03;16.85;;;12.43;;
22843;SDS011;11588;51.178;4.852;2023-05-07T09:58:28;11.77;;;8.77;;
22843;SDS011;11588;51.178;4.852;2023-05-07T10:00:54;13.32;;;9.30;;
22843;SDS011;11588;51.178;4.852;2023-05-07T10:03:20;16.98;;;10.02;;
22843;SDS011;11588;51.178;4.852;2023-05-07T10:05:48;14.13;;;8.27;;
22843;SDS011;11588;51.178;4.852;2023-05-07T10:08:14;11.65;;;8.88;;
22843;SDS011;11588;51.178;4.852;2023-05-07T10:10:41;11.73;;;8.20;;
22843;SDS011;11588;51.178;4.852;2023-05-07T10:13:08;12.75;;;7.25;;
22843;SDS011;11588;51.178;4.852;2023-05-07T10:15:36;12.00;;;6.28;;
22843;SDS011;11588;51.178;4.852;2023-05-07T10:18:02;9.98;;;6.55;;
22843;SDS011;11588;51.178;4.852;2023-05-07T10:20:28;10.00;;;6.03;;
22843;SDS011;11588;51.178;4.852;2023-05-07T10:22:53;9.68;;;5.82;;
22843;SDS011;11588;51.178;4.852;2023-05-07T10:25:22;9.00;;;5.43;;
22843;SDS011;11588;51.178;4.852;2023-05-07T10:27:48;8.35;;;5.13;;
22843;SDS011;11588;51.178;4.852;2023-05-07T10:32:49;11.10;;;5.22;;
22843;SDS011;11588;51.178;4.852;2023-05-07T10:35:17;6.68;;;4.18;;
22843;SDS011;11588;51.178;4.852;2023-05-07T10:37:44;8.05;;;5.68;;
22843;SDS011;11588;51.178;4.852;2023-05-07T10:40:10;11.70;;;7.97;;
22843;SDS011;11588;51.178;4.852;2023-05-07T10:42:35;10.95;;;8.05;;
22843;SDS011;11588;51.178;4.852;2023-05-07T10:47:36;6.90;;;4.90;;
22843;SDS011;11588;51.178;4.852;2023-05-07T10:50:22;10.38;;;4.40;;
22843;SDS011;11588;51.178;4.852;2023-05-07T10:53:07;8.88;;;5.50;;
22843;SDS011;11588;51.178;4.852;2023-05-07T10:55:33;13.48;;;7.90;;
22843;SDS011;11588;51.178;4.852;2023-05-07T10:58:14;7.68;;;5.68;;
22843;SDS011;11588;51.178;4.852;2023-05-07T11:00:44;8.30;;;7.38;;
22843;SDS011;11588;51.178;4.852;2023-05-07T11:03:09;8.95;;;6.78;;
22843;SDS011;11588;51.178;4.852;2023-05-07T11:05:35;9.98;;;7.45;;
22843;SDS011;11588;51.178;4.852;2023-05-07T11:08:01;10.15;;;5.93;;
22843;SDS011;11588;51.178;4.852;2023-05-07T11:12:59;7.95;;;5.35;;
22843;SDS011;11588;51.178;4.852;2023-05-07T11:17:58;7.82;;;4.63;;
22843;SDS011;11588;51.178;4.852;2023-05-07T11:25:46;5.72;;;3.15;;
22843;SDS011;11588;51.178;4.852;2023-05-07T11:28:11;6.57;;;4.05;;
22843;SDS011;11588;51.178;4.852;2023-05-07T11:30:37;6.68;;;4.07;;
22843;SDS011;11588;51.178;4.852;2023-05-07T11:33:04;8.15;;;4.22;;
22843;SDS011;11588;51.178;4.852;2023-05-07T11:35:30;6.22;;;3.33;;
22843;SDS011;11588;51.178;4.852;2023-05-07T11:37:59;5.38;;;3.72;;
22843;SDS011;11588;51.178;4.852;2023-05-07T11:40:27;6.45;;;3.75;;
22843;SDS011;11588;51.178;4.852;2023-05-07T11:42:53;7.45;;;3.60;;
22843;SDS011;11588;51.178;4.852;2023-05-07T11:47:51;5.97;;;2.30;;
22843;SDS011;11588;51.178;4.852;2023-05-07T11:50:16;8.32;;;3.13;;
22843;SDS011;11588;51.178;4.852;2023-05-07T11:52:49;4.97;;;2.58;;
22843;SDS011;11588;51.178;4.852;2023-05-07T11:55:15;5.75;;;2.50;;
22843;SDS011;11588;51.178;4.852;2023-05-07T11:57:44;3.55;;;2.40;;
22843;SDS011;11588;51.178;4.852;2023-05-07T12:00:10;8.52;;;3.38;;
22843;SDS011;11588;51.178;4.852;2023-05-07T12:02:35;4.45;;;3.13;;
22843;SDS011;11588;51.178;4.852;2023-05-07T12:05:01;4.90;;;2.50;;
22843;SDS011;11588;51.178;4.852;2023-05-07T12:07:27;7.32;;;3.17;;
22843;SDS011;11588;51.178;4.852;2023-05-07T12:09:54;4.10;;;2.00;;
22843;SDS011;11588;51.178;4.852;2023-05-07T12:12:20;4.57;;;2.55;;
22843;SDS011;11588;51.178;4.852;2023-05-07T12:14:45;4.50;;;2.38;;
22843;SDS011;11588;51.178;4.852;2023-05-07T12:17:13;6.72;;;2.30;;
22843;SDS011;11588;51.178;4.852;2023-05-07T12:19:39;7.55;;;2.90;;
22843;SDS011;11588;51.178;4.852;2023-05-07T12:22:07;6.72;;;3.03;;
22843;SDS011;11588;51.178;4.852;2023-05-07T12:27:05;4.70;;;2.92;;
22843;SDS011;11588;51.178;4.852;2023-05-07T12:29:31;7.82;;;2.67;;
22843;SDS011;11588;51.178;4.852;2023-05-07T12:31:57;5.90;;;2.90;;
22843;SDS011;11588;51.178;4.852;2023-05-07T12:34:22;6.22;;;2.95;;
22843;SDS011;11588;51.178;4.852;2023-05-07T12:36:48;6.93;;;2.67;;
22843;SDS011;11588;51.178;4.852;2023-05-07T12:39:13;8.20;;;3.10;;
22843;SDS011;11588;51.178;4.852;2023-05-07T12:44:12;5.72;;;3.35;;
22843;SDS011;11588;51.178;4.852;2023-05-07T12:46:40;4.90;;;2.80;;
22843;SDS011;11588;51.178;4.852;2023-05-07T12:49:06;7.30;;;3.05;;
22843;SDS011;11588;51.178;4.852;2023-05-07T12:51:34;6.45;;;3.17;;
22843;SDS011;11588;51.178;4.852;2023-05-07T12:53:59;8.82;;;3.88;;
22843;SDS011;11588;51.178;4.852;2023-05-07T12:56:25;6.47;;;3.75;;
22843;SDS011;11588;51.178;4.852;2023-05-07T12:58:51;8.73;;;3.60;;
22843;SDS011;11588;51.178;4.852;2023-05-07T13:01:22;6.65;;;3.05;;
22843;SDS011;11588;51.178;4.852;2023-05-07T13:03:50;7.70;;;4.18;;
22843;SDS011;11588;51.178;4.852;2023-05-07T13:06:15;8.45;;;5.82;;
22843;SDS011;11588;51.178;4.852;2023-05-07T13:08:41;5.07;;;3.90;;
22843;SDS011;11588;51.178;4.852;2023-05-07T13:11:10;5.07;;;2.70;;
22843;SDS011;11588;51.178;4.852;2023-05-07T13:13:36;6.90;;;2.97;;
22843;SDS011;11588;51.178;4.852;2023-05-07T13:16:02;5.88;;;3.03;;
22843;SDS011;11588;51.178;4.852;2023-05-07T13:18:30;5.63;;;2.97;;
22843;SDS011;11588;51.178;4.852;2023-05-07T13:20:56;7.70;;;3.53;;
22843;SDS011;11588;51.178;4.852;2023-05-07T13:23:22;5.55;;;2.83;;
22843;SDS011;11588;51.178;4.852;2023-05-07T13:25:47;4.07;;;2.30;;
22843;SDS011;11588;51.178;4.852;2023-05-07T13:28:13;3.97;;;2.60;;
22843;SDS011;11588;51.178;4.852;2023-05-07T13:30:39;7.10;;;2.22;;
22843;SDS011;11588;51.178;4.852;2023-05-07T13:33:05;5.57;;;2.20;;
22843;SDS011;11588;51.178;4.852;2023-05-07T13:35:33;5.40;;;2.08;;
22843;SDS011;11588;51.178;4.852;2023-05-07T13:37:58;3.40;;;2.22;;
22843;SDS011;11588;51.178;4.852;2023-05-07T13:40:24;4.53;;;2.00;;
22843;SDS011;11588;51.178;4.852;2023-05-07T13:42:51;4.05;;;1.85;;
22843;SDS011;11588;51.178;4.852;2023-05-07T13:45:18;3.70;;;2.20;;
22843;SDS011;11588;51.178;4.852;2023-05-07T13:47:45;6.20;;;2.50;;
22843;SDS011;11588;51.178;4.852;2023-05-07T13:50:12;2.90;;;1.88;;
22843;SDS011;11588;51.178;4.852;2023-05-07T13:52:41;3.35;;;2.15;;
22843;SDS011;11588;51.178;4.852;2023-05-07T13:55:10;4.55;;;2.17;;
22843;SDS011;11588;51.178;4.852;2023-05-07T13:57:36;5.07;;;2.35;;
22843;SDS011;11588;51.178;4.852;2023-05-07T14:00:02;6.38;;;2.50;;
22843;SDS011;11588;51.178;4.852;2023-05-07T14:02:29;5.93;;;2.83;;
22843;SDS011;11588;51.178;4.852;2023-05-07T14:04:55;2.72;;;1.88;;
22843;SDS011;11588;51.178;4.852;2023-05-07T14:07:23;4.38;;;1.92;;
22843;SDS011;11588;51.178;4.852;2023-05-07T14:09:48;5.95;;;1.65;;
22843;SDS011;11588;51.178;4.852;2023-05-07T14:12:14;3.53;;;1.90;;
22843;SDS011;11588;51.178;4.852;2023-05-07T14:14:39;2.65;;;1.52;;
22843;SDS011;11588;51.178;4.852;2023-05-07T14:17:05;3.17;;;1.63;;
22843;SDS011;11588;51.178;4.852;2023-05-07T14:19:31;3.72;;;1.80;;
22843;SDS011;11588;51.178;4.852;2023-05-07T14:21:56;3.13;;;1.85;;
22843;SDS011;11588;51.178;4.852;2023-05-07T14:24:24;3.65;;;1.98;;
22843;SDS011;11588;51.178;4.852;2023-05-07T14:26:49;2.17;;;1.67;;
22843;SDS011;11588;51.178;4.852;2023-05-07T14:29:15;2.92;;;1.75;;
22843;SDS011;11588;51.178;4.852;2023-05-07T14:31:44;3.55;;;1.75;;
22843;SDS011;11588;51.178;4.852;2023-05-07T14:34:10;2.92;;;1.60;;
22843;SDS011;11588;51.178;4.852;2023-05-07T14:36:35;3.72;;;1.98;;
22843;SDS011;11588;51.178;4.852;2023-05-07T14:39:00;3.50;;;2.22;;
22843;SDS011;11588;51.178;4.852;2023-05-07T14:41:26;4.43;;;1.88;;
22843;SDS011;11588;51.178;4.852;2023-05-07T14:43:51;4.28;;;2.00;;
22843;SDS011;11588;51.178;4.852;2023-05-07T14:46:18;3.90;;;1.85;;
22843;SDS011;11588;51.178;4.852;2023-05-07T14:48:44;6.30;;;2.10;;
22843;SDS011;11588;51.178;4.852;2023-05-07T14:51:10;2.58;;;2.20;;